createdAt,value
2022-11-13T00:01:09.286Z,9.11
2022-11-13T00:03:37.291Z,9.13
2022-11-13T00:06:05.564Z,9.05
2022-11-13T00:08:33.477Z,9.00
2022-11-13T00:11:02.856Z,8.98
2022-11-13T00:13:30.902Z,8.98
2022-11-13T00:16:02.277Z,8.94
2022-11-13T00:18:31.028Z,8.90
2022-11-13T00:20:59.747Z,8.90
2022-11-13T00:23:27.568Z,8.94
2022-11-13T00:25:55.384Z,8.96
2022-11-13T00:28:23.201Z,8.89
2022-11-13T00:30:50.857Z,8.84
2022-11-13T00:33:38.015Z,8.80
2022-11-13T00:36:10.226Z,8.74
2022-11-13T00:38:38.206Z,8.74
2022-11-13T00:41:06.262Z,8.71
2022-11-13T00:43:34.015Z,8.69
2022-11-13T00:46:01.764Z,8.65
2022-11-13T00:48:31.129Z,8.68
2022-11-13T00:50:59.092Z,8.64
2022-11-13T00:53:27.240Z,8.66
2022-11-13T00:55:54.955Z,8.65
2022-11-13T00:58:22.663Z,8.50
2022-11-13T01:00:50.427Z,8.57
2022-11-13T01:03:18.580Z,8.61
2022-11-13T01:05:48.127Z,8.45
2022-11-13T01:08:17.117Z,8.46
2022-11-13T01:10:53.045Z,8.49
2022-11-13T01:13:21.532Z,8.53
2022-11-13T01:15:49.361Z,8.54
2022-11-13T01:18:17.067Z,8.41
2022-11-13T01:20:44.758Z,8.34
2022-11-13T01:23:13.804Z,8.38
2022-11-13T01:25:41.509Z,8.45
2022-11-13T01:28:09.864Z,8.43
2022-11-13T01:30:39.839Z,8.40
2022-11-13T01:33:07.510Z,8.39
2022-11-13T01:35:35.425Z,8.36
2022-11-13T01:38:03.085Z,8.38
2022-11-13T01:40:32.044Z,8.26
2022-11-13T01:42:59.695Z,8.26
2022-11-13T01:46:08.693Z,8.23
2022-11-13T01:48:39.677Z,8.25
2022-11-13T01:51:12.386Z,8.21
2022-11-13T01:53:42.663Z,8.13
2022-11-13T01:56:12.775Z,8.08
2022-11-13T01:58:41.538Z,8.10
2022-11-13T02:01:09.443Z,8.09
2022-11-13T02:03:37.267Z,8.08
2022-11-13T02:06:05.242Z,8.04
2022-11-13T02:08:33.045Z,8.14
2022-11-13T02:11:00.899Z,8.09
2022-11-13T02:13:29.921Z,8.08
2022-11-13T02:15:59.239Z,8.10
2022-11-13T02:18:30.711Z,8.11
2022-11-13T02:21:06.619Z,8.04
2022-11-13T02:23:44.750Z,8.04
2022-11-13T02:26:14.241Z,8.03
2022-11-13T02:28:41.935Z,8.04
2022-11-13T02:31:10.463Z,8.04
2022-11-13T02:33:38.169Z,7.98
2022-11-13T02:36:07.931Z,7.97
2022-11-13T02:38:37.078Z,7.99
2022-11-13T02:41:04.766Z,7.87
2022-11-13T02:43:33.785Z,7.88
2022-11-13T02:46:01.402Z,7.79
2022-11-13T02:48:29.565Z,7.69
2022-11-13T02:50:57.505Z,7.68
2022-11-13T02:53:25.156Z,7.59
2022-11-13T02:55:52.818Z,7.57
2022-11-13T02:58:20.546Z,7.59
2022-11-13T03:00:49.538Z,7.56
2022-11-13T03:03:34.212Z,7.52
2022-11-13T03:06:04.964Z,7.50
2022-11-13T03:08:33.646Z,7.39
2022-11-13T03:11:08.641Z,7.40
2022-11-13T03:13:36.616Z,7.49
2022-11-13T03:16:14.064Z,7.47
2022-11-13T03:18:42.339Z,7.48
2022-11-13T03:21:11.676Z,7.34
2022-11-13T03:23:39.674Z,7.33
2022-11-13T03:26:08.788Z,7.30
2022-11-13T03:28:37.213Z,7.31
2022-11-13T03:31:06.064Z,7.33
2022-11-13T03:33:35.254Z,7.42
2022-11-13T03:36:02.989Z,7.43
2022-11-13T03:38:31.204Z,7.45
2022-11-13T03:40:59.345Z,7.47
2022-11-13T03:43:27.046Z,7.51
2022-11-13T03:45:54.739Z,7.48
2022-11-13T03:48:22.473Z,7.48
2022-11-13T03:50:54.854Z,7.48
2022-11-13T03:53:22.779Z,7.48
2022-11-13T03:55:50.591Z,7.49
2022-11-13T03:58:18.477Z,7.53
2022-11-13T04:00:47.315Z,7.50
2022-11-13T04:03:15.189Z,7.48
2022-11-13T04:05:43.495Z,7.48
2022-11-13T04:08:12.477Z,7.46
2022-11-13T04:10:40.187Z,7.36
2022-11-13T04:13:08.282Z,7.27
2022-11-13T04:15:35.959Z,7.33
2022-11-13T04:18:03.836Z,7.32
2022-11-13T04:20:31.635Z,7.28
2022-11-13T04:22:59.683Z,7.24
2022-11-13T04:25:28.704Z,7.25
2022-11-13T04:27:56.370Z,7.16
2022-11-13T04:30:24.028Z,7.23
2022-11-13T04:32:51.720Z,7.19
2022-11-13T04:35:19.668Z,7.23
2022-11-13T04:37:47.377Z,7.24
2022-11-13T04:40:16.531Z,7.05
2022-11-13T04:42:50.765Z,7.11
2022-11-13T04:45:19.653Z,7.16
2022-11-13T04:47:47.626Z,7.16
2022-11-13T04:50:16.683Z,7.14
2022-11-13T04:52:44.922Z,7.08
2022-11-13T04:55:13.526Z,7.09
2022-11-13T04:57:41.986Z,7.13
2022-11-13T05:00:12.514Z,7.08
2022-11-13T05:02:40.194Z,7.11
2022-11-13T05:05:08.579Z,7.09
2022-11-13T05:07:36.258Z,7.16
2022-11-13T05:10:04.313Z,7.22
2022-11-13T05:12:32.061Z,7.09
2022-11-13T05:14:59.666Z,7.10
2022-11-13T05:17:28.676Z,7.05
2022-11-13T05:19:56.341Z,7.02
2022-11-13T05:22:24.396Z,7.04
2022-11-13T05:24:52.168Z,7.05
2022-11-13T05:27:19.861Z,7.04
2022-11-13T05:29:47.522Z,7.00
2022-11-13T05:32:15.258Z,7.03
2022-11-13T05:34:44.252Z,7.02
2022-11-13T05:37:11.917Z,6.91
2022-11-13T05:39:39.676Z,6.86
2022-11-13T05:42:07.346Z,6.94
2022-11-13T05:44:34.972Z,6.86
2022-11-13T05:47:02.612Z,6.90
2022-11-13T05:49:30.287Z,7.02
2022-11-13T05:51:59.287Z,7.02
2022-11-13T05:54:26.934Z,7.08
2022-11-13T05:56:54.561Z,7.14
2022-11-13T05:59:22.231Z,7.20
2022-11-13T06:01:49.969Z,7.25
2022-11-13T06:04:17.743Z,7.28
2022-11-13T06:06:45.379Z,7.27
2022-11-13T06:09:17.147Z,7.11
2022-11-13T06:11:45.046Z,6.99
2022-11-13T06:14:12.732Z,6.97
2022-11-13T06:16:41.277Z,6.94
2022-11-13T06:19:11.040Z,6.80
2022-11-13T06:21:41.132Z,6.78
2022-11-13T06:24:11.661Z,6.84
2022-11-13T06:26:40.991Z,6.91
2022-11-13T06:29:11.146Z,7.01
2022-11-13T06:31:38.948Z,7.10
2022-11-13T06:34:07.152Z,7.15
2022-11-13T06:36:37.648Z,7.12
2022-11-13T06:39:08.112Z,7.10
2022-11-13T06:41:35.925Z,7.14
2022-11-13T06:44:05.303Z,7.17
2022-11-13T06:46:33.031Z,7.21
2022-11-13T06:49:00.973Z,7.23
2022-11-13T06:51:30.522Z,7.21
2022-11-13T06:53:59.044Z,7.22
2022-11-13T06:56:27.417Z,7.16
2022-11-13T06:58:56.174Z,6.93
2022-11-13T07:01:26.519Z,6.83
2022-11-13T07:03:54.660Z,6.82
2022-11-13T07:06:23.956Z,6.91
2022-11-13T07:08:52.752Z,6.88
2022-11-13T07:11:22.353Z,6.63
2022-11-13T07:13:50.922Z,6.67
2022-11-13T07:16:18.916Z,6.67
2022-11-13T07:18:52.049Z,6.66
2022-11-13T07:21:20.606Z,6.69
2022-11-13T07:23:49.358Z,6.75
2022-11-13T07:26:17.767Z,6.80
2022-11-13T07:28:45.756Z,6.87
2022-11-13T07:31:15.058Z,6.90
2022-11-13T07:33:42.723Z,6.98
2022-11-13T07:36:12.249Z,6.96
2022-11-13T07:38:39.872Z,7.04
2022-11-13T07:41:07.709Z,7.04
2022-11-13T07:43:36.363Z,7.10
2022-11-13T07:46:04.302Z,6.94
2022-11-13T07:48:32.453Z,7.03
2022-11-13T07:51:02.107Z,6.92
2022-11-13T07:53:31.682Z,6.79
2022-11-13T07:56:02.168Z,6.78
2022-11-13T07:58:30.487Z,6.81
2022-11-13T08:01:03.083Z,6.98
2022-11-13T08:03:31.120Z,6.91
2022-11-13T08:06:02.438Z,6.97
2022-11-13T08:08:32.144Z,7.08
2022-11-13T08:11:00.620Z,7.20
2022-11-13T08:13:28.680Z,7.32
2022-11-13T08:15:59.847Z,7.41
2022-11-13T08:18:28.658Z,7.49
2022-11-13T08:20:56.983Z,7.53
2022-11-13T08:23:24.691Z,7.51
2022-11-13T08:25:54.088Z,7.52
2022-11-13T08:28:21.737Z,7.67
2022-11-13T08:30:49.447Z,7.74
2022-11-13T08:33:17.169Z,7.72
2022-11-13T08:35:53.486Z,7.48
2022-11-13T08:38:22.312Z,7.53
2022-11-13T08:40:50.148Z,7.40
2022-11-13T08:43:21.341Z,7.62
2022-11-13T08:45:49.330Z,7.67
2022-11-13T08:48:17.016Z,7.70
2022-11-13T08:50:44.696Z,7.74
2022-11-13T08:53:12.573Z,7.81
2022-11-13T08:55:40.300Z,7.96
2022-11-13T08:58:07.966Z,7.86
2022-11-13T09:00:37.045Z,7.87
2022-11-13T09:03:05.081Z,7.65
2022-11-13T09:05:32.828Z,7.56
2022-11-13T09:08:02.453Z,7.81
2022-11-13T09:10:31.335Z,7.96
2022-11-13T09:13:01.793Z,8.04
2022-11-13T09:15:29.979Z,8.23
2022-11-13T09:17:59.744Z,8.08
2022-11-13T09:20:28.123Z,8.17
2022-11-13T09:22:59.738Z,8.23
2022-11-13T09:25:36.882Z,8.24
2022-11-13T09:28:07.185Z,8.18
2022-11-13T09:30:35.393Z,8.30
2022-11-13T09:33:05.267Z,8.08
2022-11-13T09:35:36.945Z,8.06
2022-11-13T09:38:11.136Z,8.25
2022-11-13T09:40:44.974Z,8.10
2022-11-13T09:43:25.784Z,7.82
2022-11-13T09:45:59.169Z,7.77
2022-11-13T09:48:34.976Z,7.60
2022-11-13T09:51:08.395Z,7.62
2022-11-13T09:53:38.617Z,7.91
2022-11-13T09:56:16.102Z,7.98
2022-11-13T09:58:49.792Z,8.13
2022-11-13T10:01:25.406Z,8.35
2022-11-13T10:04:04.179Z,8.22
2022-11-13T10:07:01.486Z,7.97
2022-11-13T10:09:38.040Z,7.96
2022-11-13T10:12:09.965Z,7.80
2022-11-13T10:14:42.787Z,7.79
2022-11-13T10:17:17.648Z,7.94
2022-11-13T10:19:55.309Z,7.92
2022-11-13T10:22:33.939Z,7.94
2022-11-13T10:25:11.866Z,8.05
2022-11-13T10:27:39.877Z,8.17
2022-11-13T10:30:14.968Z,8.17
2022-11-13T10:32:43.235Z,8.27
2022-11-13T10:35:28.852Z,7.90
2022-11-13T10:38:06.582Z,7.52
2022-11-13T10:40:37.219Z,7.43
2022-11-13T10:43:15.407Z,7.68
2022-11-13T10:45:54.246Z,7.66
2022-11-13T10:48:23.960Z,7.51
2022-11-13T10:50:58.475Z,7.50
2022-11-13T10:53:28.378Z,7.50
2022-11-13T10:55:58.646Z,7.58
2022-11-13T10:58:27.014Z,7.57
2022-11-13T11:00:55.037Z,7.82
2022-11-13T11:03:25.059Z,7.82
2022-11-13T11:05:54.865Z,7.47
2022-11-13T11:08:34.891Z,7.17
2022-11-13T11:11:21.905Z,7.14
2022-11-13T11:13:49.857Z,7.46
2022-11-13T11:16:22.256Z,7.54
2022-11-13T11:18:54.903Z,7.59
2022-11-13T11:21:28.323Z,7.63
2022-11-13T11:24:02.116Z,7.44
2022-11-13T11:26:35.018Z,7.42
2022-11-13T11:29:15.419Z,7.47
2022-11-13T11:31:49.409Z,7.42
2022-11-13T11:34:21.430Z,7.44
2022-11-13T11:36:58.893Z,7.39
2022-11-13T11:39:32.550Z,7.03
2022-11-13T11:42:10.914Z,7.30
2022-11-13T11:44:55.954Z,7.52
2022-11-13T11:47:23.949Z,7.71
2022-11-13T11:49:51.913Z,7.71
2022-11-13T11:52:34.637Z,7.87
2022-11-13T11:55:20.980Z,7.85
2022-11-13T11:57:55.726Z,8.00
2022-11-13T12:00:23.562Z,8.04
2022-11-13T12:03:16.831Z,8.20
2022-11-13T12:05:58.405Z,8.32
2022-11-13T12:08:34.231Z,8.10
2022-11-13T12:11:13.265Z,8.19
2022-11-13T12:13:53.249Z,8.14
2022-11-13T12:16:28.890Z,8.06
2022-11-13T12:19:03.936Z,8.19
2022-11-13T12:21:44.660Z,8.29
2022-11-13T12:24:24.783Z,8.22
2022-11-13T12:27:07.432Z,8.32
2022-11-13T12:29:50.247Z,8.19
2022-11-13T12:32:32.036Z,8.17
2022-11-13T12:35:04.529Z,8.20
2022-11-13T12:37:37.366Z,8.10
2022-11-13T12:40:09.032Z,8.14
2022-11-13T12:42:47.678Z,7.95
2022-11-13T12:45:25.342Z,7.95
2022-11-13T12:47:53.912Z,8.03
2022-11-13T12:50:31.437Z,8.21
2022-11-13T12:53:02.289Z,8.38
2022-11-13T12:55:31.916Z,8.44
2022-11-13T12:58:10.196Z,8.59
2022-11-13T13:00:40.589Z,8.39
2022-11-13T13:03:26.988Z,8.32
2022-11-13T13:06:11.920Z,8.23
2022-11-13T13:08:50.153Z,8.04
2022-11-13T13:11:24.845Z,8.15
2022-11-13T13:14:15.640Z,7.94
2022-11-13T13:16:46.154Z,7.99
2022-11-13T13:19:28.267Z,8.04
2022-11-13T13:21:56.452Z,8.16
2022-11-13T13:24:33.799Z,8.29
2022-11-13T13:27:02.229Z,8.09
2022-11-13T13:29:34.168Z,8.26
2022-11-13T13:32:13.733Z,8.23
2022-11-13T13:34:56.366Z,8.34
2022-11-13T13:37:33.924Z,8.36
2022-11-13T13:40:15.945Z,8.44
2022-11-13T13:42:59.583Z,8.39
2022-11-13T13:45:39.963Z,8.40
2022-11-13T13:48:11.527Z,8.48
2022-11-13T13:50:42.718Z,8.52
2022-11-13T13:53:16.721Z,8.56
2022-11-13T13:55:49.028Z,8.57
2022-11-13T13:58:20.666Z,8.43
2022-11-13T14:01:17.104Z,8.13
2022-11-13T14:03:46.100Z,7.97
2022-11-13T14:06:22.812Z,8.08
2022-11-13T14:08:50.866Z,7.95
2022-11-13T14:11:21.219Z,8.09
2022-11-13T14:13:49.368Z,8.13
2022-11-13T14:16:18.422Z,8.05
2022-11-13T14:18:46.109Z,8.18
2022-11-13T14:21:18.437Z,7.95
2022-11-13T14:23:48.965Z,7.89
2022-11-13T14:26:17.410Z,7.80
2022-11-13T14:28:53.395Z,7.58
2022-11-13T14:31:29.791Z,7.68
2022-11-13T14:34:01.181Z,7.49
2022-11-13T14:36:31.494Z,7.53
2022-11-13T14:39:00.381Z,7.63
2022-11-13T14:41:35.104Z,7.58
2022-11-13T14:44:03.460Z,7.61
2022-11-13T14:46:36.173Z,7.70
2022-11-13T14:49:04.834Z,7.74
2022-11-13T14:51:34.368Z,7.65
2022-11-13T14:54:07.889Z,7.74
2022-11-13T14:56:38.508Z,7.42
2022-11-13T14:59:15.541Z,7.55
2022-11-13T15:01:57.221Z,7.79
2022-11-13T15:04:25.642Z,7.92
2022-11-13T15:06:56.206Z,7.83
2022-11-13T15:09:25.448Z,7.54
2022-11-13T15:11:53.752Z,7.74
2022-11-13T15:14:23.073Z,7.65
2022-11-13T15:16:53.808Z,7.62
2022-11-13T15:19:30.743Z,7.77
2022-11-13T15:22:25.740Z,7.70
2022-11-13T15:24:46.341Z,7.71
2022-11-13T15:27:16.091Z,7.73
2022-11-13T15:29:44.595Z,7.75
2022-11-13T15:32:13.502Z,7.83
2022-11-13T15:34:42.827Z,7.70
2022-11-13T15:37:13.362Z,7.72
2022-11-13T15:39:41.463Z,7.48
2022-11-13T15:42:16.276Z,7.44
2022-11-13T15:44:44.305Z,7.53
2022-11-13T15:47:26.280Z,7.59
2022-11-13T15:50:15.293Z,7.79
2022-11-13T15:52:45.926Z,7.78
2022-11-13T15:55:32.936Z,7.72
2022-11-13T15:58:00.852Z,7.48
2022-11-13T16:00:29.675Z,7.55
2022-11-13T16:02:58.635Z,7.58
2022-11-13T16:05:29.210Z,7.43
2022-11-13T16:07:57.561Z,7.40
2022-11-13T16:10:26.042Z,7.53
2022-11-13T16:12:54.077Z,7.56
2022-11-13T16:15:22.129Z,7.64
2022-11-13T16:17:53.447Z,7.78
2022-11-13T16:20:21.236Z,7.64
2022-11-13T16:22:50.774Z,7.75
2022-11-13T16:25:22.873Z,7.77
2022-11-13T16:27:51.789Z,7.82
2022-11-13T16:30:22.951Z,7.79
2022-11-13T16:32:51.016Z,7.85
2022-11-13T16:35:21.545Z,7.72
2022-11-13T16:37:50.530Z,7.78
2022-11-13T16:40:22.586Z,7.81
2022-11-13T16:42:51.741Z,7.65
2022-11-13T16:45:20.367Z,7.65
2022-11-13T16:47:48.543Z,7.61
2022-11-13T16:50:18.394Z,7.55
2022-11-13T16:52:46.169Z,7.50
2022-11-13T16:55:15.334Z,7.53
2022-11-13T16:57:43.175Z,7.40
2022-11-13T17:00:14.833Z,7.29
2022-11-13T17:02:44.506Z,7.41
2022-11-13T17:05:13.941Z,7.41
2022-11-13T17:07:42.821Z,7.31
2022-11-13T17:13:01.905Z,7.31
2022-11-13T17:15:29.724Z,7.52
2022-11-13T17:17:59.040Z,7.40
2022-11-13T17:20:27.684Z,7.53
2022-11-13T17:22:55.950Z,7.59
2022-11-13T17:25:26.396Z,7.64
2022-11-13T17:27:54.358Z,7.64
2022-11-13T17:30:26.102Z,7.74
2022-11-13T17:32:54.103Z,7.68
2022-11-13T17:35:22.077Z,7.71
2022-11-13T17:37:49.942Z,7.59
2022-11-13T17:40:17.943Z,7.64
2022-11-13T17:42:47.835Z,7.58
2022-11-13T17:45:15.889Z,7.58
2022-11-13T17:47:45.090Z,7.61
2022-11-13T17:50:14.901Z,7.65
2022-11-13T17:52:42.766Z,7.79
2022-11-13T17:55:12.944Z,7.73
2022-11-13T17:57:40.841Z,7.73
2022-11-13T18:00:10.049Z,7.89
2022-11-13T18:02:37.790Z,8.00
2022-11-13T18:05:09.195Z,8.08
2022-11-13T18:07:37.194Z,7.82
2022-11-13T18:10:05.649Z,7.85
2022-11-13T18:12:33.382Z,7.87
2022-11-13T18:15:01.112Z,7.93
2022-11-13T18:17:29.014Z,8.00
2022-11-13T18:20:01.529Z,7.90
2022-11-13T18:22:31.511Z,7.94
2022-11-13T18:24:59.229Z,7.94
2022-11-13T18:27:27.698Z,7.92
2022-11-13T18:29:55.805Z,7.81
2022-11-13T18:32:23.987Z,7.66
2022-11-13T18:34:51.901Z,7.62
2022-11-13T18:37:19.785Z,7.72
2022-11-13T18:39:48.855Z,7.73
2022-11-13T18:42:16.687Z,7.73
2022-11-13T18:44:45.381Z,7.66
2022-11-13T18:47:13.170Z,7.62
2022-11-13T18:49:40.955Z,7.54
2022-11-13T18:52:08.851Z,7.58
2022-11-13T18:54:36.808Z,7.70
2022-11-13T18:57:06.447Z,7.88
2022-11-13T18:59:34.656Z,7.94
2022-11-13T19:02:03.162Z,7.94
2022-11-13T19:04:31.342Z,7.88
2022-11-13T19:07:02.346Z,7.84
2022-11-13T19:09:30.545Z,7.88
2022-11-13T19:11:58.424Z,7.75
2022-11-13T19:14:27.608Z,7.67
2022-11-13T19:16:56.097Z,7.72
2022-11-13T19:19:24.967Z,7.69
2022-11-13T19:21:53.161Z,7.72
2022-11-13T19:24:23.724Z,7.67
2022-11-13T19:26:51.587Z,7.53
2022-11-13T19:29:20.184Z,7.61
2022-11-13T19:31:50.129Z,7.70
2022-11-13T19:34:18.338Z,7.85
2022-11-13T19:36:47.789Z,7.77
2022-11-13T19:39:16.195Z,7.83
2022-11-13T19:41:44.047Z,7.72
2022-11-13T19:44:13.424Z,7.78
2022-11-13T19:46:41.199Z,7.72
2022-11-13T19:49:10.376Z,7.75
2022-11-13T19:51:38.030Z,7.78
2022-11-13T19:54:05.796Z,7.81
2022-11-13T19:56:33.658Z,7.78
2022-11-13T19:59:01.634Z,7.72
2022-11-13T20:01:31.861Z,7.79
2022-11-13T20:04:01.732Z,7.79
2022-11-13T20:06:33.413Z,7.83
2022-11-13T20:09:02.131Z,7.84
2022-11-13T20:11:30.115Z,7.86
2022-11-13T20:13:58.448Z,7.94
2022-11-13T20:16:26.557Z,7.87
2022-11-13T20:18:57.908Z,7.79
2022-11-13T20:21:26.174Z,7.88
2022-11-13T20:23:56.981Z,7.83
2022-11-13T20:26:25.339Z,7.83
2022-11-13T20:28:53.567Z,7.99
2022-11-13T20:31:23.524Z,8.04
2022-11-13T20:33:56.475Z,8.04
2022-11-13T20:36:25.118Z,7.91
2022-11-13T20:38:55.667Z,7.95
2022-11-13T20:41:25.047Z,7.98
2022-11-13T20:43:55.655Z,8.01
2022-11-13T20:46:23.699Z,8.06
2022-11-13T20:48:51.483Z,8.03
2022-11-13T20:51:20.864Z,7.96
2022-11-13T20:53:49.228Z,7.74
2022-11-13T20:56:19.718Z,7.61
2022-11-13T20:58:47.874Z,7.76
2022-11-13T21:01:17.214Z,7.72
2022-11-13T21:03:46.078Z,7.67
2022-11-13T21:06:16.110Z,7.77
2022-11-13T21:08:44.526Z,7.79
2022-11-13T21:11:18.428Z,7.73
2022-11-13T21:13:48.961Z,7.74
2022-11-13T21:16:18.105Z,7.65
2022-11-13T21:18:46.806Z,7.63
2022-11-13T21:21:18.713Z,7.66
2022-11-13T21:23:47.558Z,7.61
2022-11-13T21:26:16.501Z,7.57
2022-11-13T21:28:44.841Z,7.60
2022-11-13T21:31:17.706Z,7.72
2022-11-13T21:33:47.422Z,7.77
2022-11-13T21:36:16.896Z,7.61
2022-11-13T21:38:44.951Z,7.50
2022-11-13T21:41:25.100Z,7.69
2022-11-13T21:43:56.916Z,7.67
2022-11-13T21:46:27.842Z,7.62
2022-11-13T21:48:57.311Z,7.73
2022-11-13T21:51:25.343Z,7.64
2022-11-13T21:53:53.457Z,7.62
2022-11-13T21:56:21.495Z,7.72
2022-11-13T21:58:49.448Z,7.77
2022-11-13T22:01:18.401Z,7.75
2022-11-13T22:03:47.449Z,7.70
2022-11-13T22:06:18.089Z,7.64
2022-11-13T22:08:47.141Z,7.53
2022-11-13T22:11:15.124Z,7.30
2022-11-13T22:13:44.014Z,7.23
2022-11-13T22:16:13.386Z,7.25
2022-11-13T22:18:41.232Z,7.24
2022-11-13T22:21:13.861Z,7.27
2022-11-13T22:23:42.921Z,7.13
2022-11-13T22:26:12.579Z,7.21
2022-11-13T22:28:41.867Z,7.14
2022-11-13T22:31:14.738Z,7.16
2022-11-13T22:33:47.496Z,7.12
2022-11-13T22:36:19.738Z,7.18
2022-11-13T22:38:51.321Z,7.05
2022-11-13T22:41:23.282Z,7.06
2022-11-13T22:43:53.248Z,7.06
2022-11-13T22:46:22.796Z,6.97
2022-11-13T22:48:52.094Z,7.04
2022-11-13T22:51:22.876Z,7.09
2022-11-13T22:53:53.083Z,7.09
2022-11-13T22:56:22.094Z,7.19
2022-11-13T22:58:50.160Z,7.06
2022-11-13T23:01:19.998Z,7.24
2022-11-13T23:03:49.574Z,7.11
2022-11-13T23:06:19.351Z,7.16
2022-11-13T23:08:49.167Z,7.03
2022-11-13T23:11:19.222Z,7.20
2022-11-13T23:13:48.998Z,7.21
2022-11-13T23:16:17.886Z,6.92
2022-11-13T23:18:46.475Z,6.75
2022-11-13T23:21:15.271Z,6.95
2022-11-13T23:23:43.624Z,6.82
2022-11-13T23:26:15.058Z,6.82
2022-11-13T23:28:42.886Z,6.95
2022-11-13T23:31:10.602Z,7.04
2022-11-13T23:33:40.464Z,7.13
2022-11-13T23:36:09.582Z,7.09
2022-11-13T23:38:37.805Z,6.91
2022-11-13T23:41:06.504Z,6.97
2022-11-13T23:46:23.323Z,6.94
2022-11-13T23:48:51.079Z,6.96
2022-11-13T23:51:18.750Z,6.75
2022-11-13T23:53:46.449Z,6.91
2022-11-13T23:56:14.093Z,6.93
2022-11-13T23:58:43.100Z,6.97
